Open Full Screen Window  High Contrast Mode
Wind Gusting 00 knots
04
October 18, 2017 9:25 PM EDT
Weather Information
Wind Direction
  170 °
Wind Speed
  04 kt (5 mph)
Wind Gust
  00 kt (0 mph)
Altimeter
30.26 in
Visibility
10 SM
Temperature
12° C
54° F
Dewpoint
08° C
46° F
Humidity
77%
1hr Rain Fall
00.00 in.
24hr Rain Fall
00.00 in.
Sky Condition
Clear
VFR

METAR KSYM 190125Z AUTO 17004KT 10SM CLR 12/08 A3026 RMK AO2

*Background is not an actual portrayal of the airport.